sensor_id;sensor_type;location;lat;lon;timestamp;P1;durP1;ratioP1;P2;durP2;ratioP2
14358;SDS011;7263;49.418;11.064;2022-11-04T00:01:52;12.87;;;10.43;;
14358;SDS011;7263;49.418;11.064;2022-11-04T00:04:20;12.33;;;9.43;;
14358;SDS011;7263;49.418;11.064;2022-11-04T00:06:48;10.70;;;9.60;;
14358;SDS011;7263;49.418;11.064;2022-11-04T00:09:17;11.83;;;9.37;;
14358;SDS011;7263;49.418;11.064;2022-11-04T00:11:45;12.63;;;9.23;;
14358;SDS011;7263;49.418;11.064;2022-11-04T00:14:30;13.37;;;9.87;;
14358;SDS011;7263;49.418;11.064;2022-11-04T00:16:58;12.73;;;9.73;;
14358;SDS011;7263;49.418;11.064;2022-11-04T00:19:42;12.03;;;9.20;;
14358;SDS011;7263;49.418;11.064;2022-11-04T00:22:27;10.47;;;9.37;;
14358;SDS011;7263;49.418;11.064;2022-11-04T00:25:14;12.73;;;10.33;;
14358;SDS011;7263;49.418;11.064;2022-11-04T00:28:02;11.70;;;9.17;;
14358;SDS011;7263;49.418;11.064;2022-11-04T00:30:52;11.77;;;9.53;;
14358;SDS011;7263;49.418;11.064;2022-11-04T00:33:19;12.03;;;9.90;;
14358;SDS011;7263;49.418;11.064;2022-11-04T00:35:52;13.43;;;9.17;;
14358;SDS011;7263;49.418;11.064;2022-11-04T00:38:20;13.17;;;8.77;;
14358;SDS011;7263;49.418;11.064;2022-11-04T00:40:49;12.03;;;9.70;;
14358;SDS011;7263;49.418;11.064;2022-11-04T00:43:15;13.60;;;9.20;;
14358;SDS011;7263;49.418;11.064;2022-11-04T00:45:43;9.63;;;8.63;;
14358;SDS011;7263;49.418;11.064;2022-11-04T00:48:10;9.73;;;7.70;;
14358;SDS011;7263;49.418;11.064;2022-11-04T00:50:37;6.97;;;6.10;;
14358;SDS011;7263;49.418;11.064;2022-11-04T00:53:05;6.27;;;5.43;;
14358;SDS011;7263;49.418;11.064;2022-11-04T00:55:32;6.63;;;5.80;;
14358;SDS011;7263;49.418;11.064;2022-11-04T00:58:01;6.37;;;5.13;;
14358;SDS011;7263;49.418;11.064;2022-11-04T01:00:28;6.63;;;5.57;;
14358;SDS011;7263;49.418;11.064;2022-11-04T01:02:55;5.90;;;5.17;;
14358;SDS011;7263;49.418;11.064;2022-11-04T01:05:24;7.00;;;5.10;;
14358;SDS011;7263;49.418;11.064;2022-11-04T01:07:51;5.10;;;4.60;;
14358;SDS011;7263;49.418;11.064;2022-11-04T01:10:18;7.83;;;5.50;;
14358;SDS011;7263;49.418;11.064;2022-11-04T01:12:44;5.73;;;5.07;;
14358;SDS011;7263;49.418;11.064;2022-11-04T01:15:13;5.00;;;4.50;;
14358;SDS011;7263;49.418;11.064;2022-11-04T01:17:40;6.23;;;5.23;;
14358;SDS011;7263;49.418;11.064;2022-11-04T01:20:07;5.10;;;4.47;;
14358;SDS011;7263;49.418;11.064;2022-11-04T01:22:35;4.83;;;4.43;;
14358;SDS011;7263;49.418;11.064;2022-11-04T01:25:02;5.20;;;4.27;;
14358;SDS011;7263;49.418;11.064;2022-11-04T01:27:29;5.93;;;4.47;;
14358;SDS011;7263;49.418;11.064;2022-11-04T01:29:56;5.77;;;4.30;;
14358;SDS011;7263;49.418;11.064;2022-11-04T01:32:26;6.83;;;4.77;;
14358;SDS011;7263;49.418;11.064;2022-11-04T01:34:53;5.40;;;4.07;;
14358;SDS011;7263;49.418;11.064;2022-11-04T01:37:20;4.93;;;4.00;;
14358;SDS011;7263;49.418;11.064;2022-11-04T01:39:47;4.63;;;4.03;;
14358;SDS011;7263;49.418;11.064;2022-11-04T01:42:14;5.20;;;4.10;;
14358;SDS011;7263;49.418;11.064;2022-11-04T01:44:45;5.03;;;3.80;;
14358;SDS011;7263;49.418;11.064;2022-11-04T01:47:17;4.03;;;3.57;;
14358;SDS011;7263;49.418;11.064;2022-11-04T01:49:49;3.50;;;3.20;;
14358;SDS011;7263;49.418;11.064;2022-11-04T01:52:20;4.17;;;3.20;;
14358;SDS011;7263;49.418;11.064;2022-11-04T01:54:50;3.50;;;2.70;;
14358;SDS011;7263;49.418;11.064;2022-11-04T01:57:22;3.77;;;2.83;;
14358;SDS011;7263;49.418;11.064;2022-11-04T01:59:54;2.67;;;2.27;;
14358;SDS011;7263;49.418;11.064;2022-11-04T02:02:26;3.17;;;2.83;;
14358;SDS011;7263;49.418;11.064;2022-11-04T02:04:55;3.03;;;2.70;;
14358;SDS011;7263;49.418;11.064;2022-11-04T02:07:22;2.73;;;2.40;;
14358;SDS011;7263;49.418;11.064;2022-11-04T02:09:49;2.60;;;2.33;;
14358;SDS011;7263;49.418;11.064;2022-11-04T02:12:16;3.17;;;2.03;;
14358;SDS011;7263;49.418;11.064;2022-11-04T02:15:01;3.23;;;2.50;;
14358;SDS011;7263;49.418;11.064;2022-11-04T02:17:40;3.37;;;2.20;;
14358;SDS011;7263;49.418;11.064;2022-11-04T02:20:23;2.00;;;1.80;;
14358;SDS011;7263;49.418;11.064;2022-11-04T02:29:07;1.83;;;1.67;;
14358;SDS011;7263;49.418;11.064;2022-11-04T02:31:52;1.60;;;1.50;;
14358;SDS011;7263;49.418;11.064;2022-11-04T02:34:30;4.43;;;1.70;;
14358;SDS011;7263;49.418;11.064;2022-11-04T02:37:05;2.07;;;1.57;;
14358;SDS011;7263;49.418;11.064;2022-11-04T02:39:40;3.77;;;1.50;;
14358;SDS011;7263;49.418;11.064;2022-11-04T02:42:16;1.77;;;1.40;;
14358;SDS011;7263;49.418;11.064;2022-11-04T02:44:53;1.90;;;1.50;;
14358;SDS011;7263;49.418;11.064;2022-11-04T02:47:29;1.50;;;1.40;;
14358;SDS011;7263;49.418;11.064;2022-11-04T02:49:58;1.80;;;1.60;;
14358;SDS011;7263;49.418;11.064;2022-11-04T02:52:31;1.50;;;1.40;;
14358;SDS011;7263;49.418;11.064;2022-11-04T02:55:04;3.37;;;1.30;;
14358;SDS011;7263;49.418;11.064;2022-11-04T02:57:37;1.50;;;1.40;;
14358;SDS011;7263;49.418;11.064;2022-11-04T03:00:09;2.17;;;1.60;;
14358;SDS011;7263;49.418;11.064;2022-11-04T03:02:38;1.70;;;1.30;;
14358;SDS011;7263;49.418;11.064;2022-11-04T03:05:10;2.43;;;1.30;;
14358;SDS011;7263;49.418;11.064;2022-11-04T03:07:41;1.87;;;1.30;;
14358;SDS011;7263;49.418;11.064;2022-11-04T03:10:11;3.00;;;1.50;;
14358;SDS011;7263;49.418;11.064;2022-11-04T03:12:41;1.63;;;1.40;;
14358;SDS011;7263;49.418;11.064;2022-11-04T03:15:15;1.50;;;1.40;;
14358;SDS011;7263;49.418;11.064;2022-11-04T03:17:47;1.87;;;1.30;;
14358;SDS011;7263;49.418;11.064;2022-11-04T03:20:21;1.63;;;1.53;;
14358;SDS011;7263;49.418;11.064;2022-11-04T03:22:51;1.63;;;1.47;;
14358;SDS011;7263;49.418;11.064;2022-11-04T03:25:23;1.63;;;1.50;;
14358;SDS011;7263;49.418;11.064;2022-11-04T03:27:55;2.47;;;1.40;;
14358;SDS011;7263;49.418;11.064;2022-11-04T03:30:30;1.40;;;1.10;;
14358;SDS011;7263;49.418;11.064;2022-11-04T03:33:04;2.53;;;1.70;;
14358;SDS011;7263;49.418;11.064;2022-11-04T03:35:37;2.23;;;1.20;;
14358;SDS011;7263;49.418;11.064;2022-11-04T03:38:04;1.23;;;1.13;;
14358;SDS011;7263;49.418;11.064;2022-11-04T03:40:31;2.87;;;1.63;;
14358;SDS011;7263;49.418;11.064;2022-11-04T03:42:59;2.33;;;1.50;;
14358;SDS011;7263;49.418;11.064;2022-11-04T03:45:31;1.67;;;1.20;;
14358;SDS011;7263;49.418;11.064;2022-11-04T03:47:58;1.50;;;1.37;;
14358;SDS011;7263;49.418;11.064;2022-11-04T03:50:27;1.50;;;1.30;;
14358;SDS011;7263;49.418;11.064;2022-11-04T03:52:55;1.83;;;1.50;;
14358;SDS011;7263;49.418;11.064;2022-11-04T03:55:25;1.57;;;1.07;;
14358;SDS011;7263;49.418;11.064;2022-11-04T03:58:01;1.30;;;1.20;;
14358;SDS011;7263;49.418;11.064;2022-11-04T04:00:36;1.37;;;1.20;;
14358;SDS011;7263;49.418;11.064;2022-11-04T04:03:10;1.30;;;1.20;;
14358;SDS011;7263;49.418;11.064;2022-11-04T04:05:41;3.10;;;1.57;;
14358;SDS011;7263;49.418;11.064;2022-11-04T04:08:18;1.30;;;1.20;;
14358;SDS011;7263;49.418;11.064;2022-11-04T04:10:51;2.03;;;1.30;;
14358;SDS011;7263;49.418;11.064;2022-11-04T04:13:34;1.63;;;1.30;;
14358;SDS011;7263;49.418;11.064;2022-11-04T04:16:06;2.63;;;1.40;;
14358;SDS011;7263;49.418;11.064;2022-11-04T04:18:38;2.70;;;1.40;;
14358;SDS011;7263;49.418;11.064;2022-11-04T04:21:08;1.63;;;1.20;;
14358;SDS011;7263;49.418;11.064;2022-11-04T04:23:40;1.50;;;1.20;;
14358;SDS011;7263;49.418;11.064;2022-11-04T04:26:26;1.40;;;1.30;;
14358;SDS011;7263;49.418;11.064;2022-11-04T04:29:12;1.40;;;1.30;;
14358;SDS011;7263;49.418;11.064;2022-11-04T04:31:41;1.43;;;1.30;;
14358;SDS011;7263;49.418;11.064;2022-11-04T04:34:16;1.43;;;1.33;;
14358;SDS011;7263;49.418;11.064;2022-11-04T04:36:48;1.07;;;0.97;;
14358;SDS011;7263;49.418;11.064;2022-11-04T04:39:20;1.30;;;1.20;;
14358;SDS011;7263;49.418;11.064;2022-11-04T04:42:08;1.50;;;1.30;;
14358;SDS011;7263;49.418;11.064;2022-11-04T04:44:54;1.23;;;1.13;;
14358;SDS011;7263;49.418;11.064;2022-11-04T04:47:30;1.70;;;1.20;;
14358;SDS011;7263;49.418;11.064;2022-11-04T04:50:01;1.40;;;1.20;;
14358;SDS011;7263;49.418;11.064;2022-11-04T04:52:30;2.53;;;1.40;;
14358;SDS011;7263;49.418;11.064;2022-11-04T04:54:58;1.67;;;1.20;;
14358;SDS011;7263;49.418;11.064;2022-11-04T04:57:25;2.20;;;1.60;;
14358;SDS011;7263;49.418;11.064;2022-11-04T04:59:52;1.40;;;1.13;;
14358;SDS011;7263;49.418;11.064;2022-11-04T05:02:19;1.40;;;1.30;;
14358;SDS011;7263;49.418;11.064;2022-11-04T05:04:47;1.37;;;1.13;;
14358;SDS011;7263;49.418;11.064;2022-11-04T05:07:14;1.40;;;1.10;;
14358;SDS011;7263;49.418;11.064;2022-11-04T05:09:42;1.30;;;1.20;;
14358;SDS011;7263;49.418;11.064;2022-11-04T05:12:09;3.40;;;1.43;;
14358;SDS011;7263;49.418;11.064;2022-11-04T05:14:36;1.77;;;1.37;;
14358;SDS011;7263;49.418;11.064;2022-11-04T05:17:03;1.87;;;1.43;;
14358;SDS011;7263;49.418;11.064;2022-11-04T05:19:30;1.63;;;1.53;;
14358;SDS011;7263;49.418;11.064;2022-11-04T05:21:59;1.50;;;1.20;;
14358;SDS011;7263;49.418;11.064;2022-11-04T05:24:26;2.17;;;1.30;;
14358;SDS011;7263;49.418;11.064;2022-11-04T05:26:53;1.63;;;1.50;;
14358;SDS011;7263;49.418;11.064;2022-11-04T05:29:20;1.70;;;1.60;;
14358;SDS011;7263;49.418;11.064;2022-11-04T05:31:47;3.47;;;1.30;;
14358;SDS011;7263;49.418;11.064;2022-11-04T05:34:14;1.80;;;1.40;;
14358;SDS011;7263;49.418;11.064;2022-11-04T05:36:41;2.53;;;1.30;;
14358;SDS011;7263;49.418;11.064;2022-11-04T05:39:11;4.20;;;1.57;;
14358;SDS011;7263;49.418;11.064;2022-11-04T05:41:38;3.37;;;1.80;;
14358;SDS011;7263;49.418;11.064;2022-11-04T05:44:05;2.87;;;1.50;;
14358;SDS011;7263;49.418;11.064;2022-11-04T05:46:33;2.87;;;1.47;;
14358;SDS011;7263;49.418;11.064;2022-11-04T05:49:00;8.10;;;6.63;;
14358;SDS011;7263;49.418;11.064;2022-11-04T05:51:28;14.73;;;11.30;;
14358;SDS011;7263;49.418;11.064;2022-11-04T05:53:55;6.87;;;6.13;;
14358;SDS011;7263;49.418;11.064;2022-11-04T05:56:23;2.93;;;2.00;;
14358;SDS011;7263;49.418;11.064;2022-11-04T05:58:50;4.57;;;3.53;;
14358;SDS011;7263;49.418;11.064;2022-11-04T06:01:22;3.23;;;2.50;;
14358;SDS011;7263;49.418;11.064;2022-11-04T06:03:54;6.43;;;5.03;;
14358;SDS011;7263;49.418;11.064;2022-11-04T06:06:22;4.80;;;3.87;;
14358;SDS011;7263;49.418;11.064;2022-11-04T06:08:50;5.17;;;3.77;;
14358;SDS011;7263;49.418;11.064;2022-11-04T06:11:17;7.77;;;4.93;;
14358;SDS011;7263;49.418;11.064;2022-11-04T06:13:46;5.33;;;3.33;;
14358;SDS011;7263;49.418;11.064;2022-11-04T06:16:13;6.17;;;3.87;;
14358;SDS011;7263;49.418;11.064;2022-11-04T06:18:40;5.97;;;2.93;;
14358;SDS011;7263;49.418;11.064;2022-11-04T06:21:09;6.43;;;4.47;;
14358;SDS011;7263;49.418;11.064;2022-11-04T06:23:46;8.43;;;5.17;;
14358;SDS011;7263;49.418;11.064;2022-11-04T06:26:13;5.00;;;3.93;;
14358;SDS011;7263;49.418;11.064;2022-11-04T06:28:40;7.30;;;5.40;;
14358;SDS011;7263;49.418;11.064;2022-11-04T06:31:10;13.13;;;8.80;;
14358;SDS011;7263;49.418;11.064;2022-11-04T06:33:38;12.37;;;8.13;;
14358;SDS011;7263;49.418;11.064;2022-11-04T06:36:06;8.57;;;3.60;;
14358;SDS011;7263;49.418;11.064;2022-11-04T06:38:35;4.73;;;2.40;;
14358;SDS011;7263;49.418;11.064;2022-11-04T06:41:03;5.27;;;2.57;;
14358;SDS011;7263;49.418;11.064;2022-11-04T06:43:30;2.90;;;1.97;;
14358;SDS011;7263;49.418;11.064;2022-11-04T06:45:58;2.97;;;1.60;;
14358;SDS011;7263;49.418;11.064;2022-11-04T06:48:28;2.73;;;1.93;;
14358;SDS011;7263;49.418;11.064;2022-11-04T06:50:55;3.33;;;1.90;;
14358;SDS011;7263;49.418;11.064;2022-11-04T06:53:23;2.47;;;1.83;;
14358;SDS011;7263;49.418;11.064;2022-11-04T06:55:50;2.40;;;1.77;;
14358;SDS011;7263;49.418;11.064;2022-11-04T06:58:17;5.27;;;1.70;;
14358;SDS011;7263;49.418;11.064;2022-11-04T07:00:49;2.50;;;1.70;;
14358;SDS011;7263;49.418;11.064;2022-11-04T07:03:16;3.80;;;2.10;;
14358;SDS011;7263;49.418;11.064;2022-11-04T07:05:44;2.77;;;2.07;;
14358;SDS011;7263;49.418;11.064;2022-11-04T07:08:11;5.40;;;2.23;;
14358;SDS011;7263;49.418;11.064;2022-11-04T07:10:38;3.33;;;1.70;;
14358;SDS011;7263;49.418;11.064;2022-11-04T07:13:05;5.03;;;2.20;;
14358;SDS011;7263;49.418;11.064;2022-11-04T07:15:32;3.70;;;2.43;;
14358;SDS011;7263;49.418;11.064;2022-11-04T07:17:59;3.43;;;2.00;;
14358;SDS011;7263;49.418;11.064;2022-11-04T07:20:26;5.93;;;1.80;;
14358;SDS011;7263;49.418;11.064;2022-11-04T07:22:55;2.07;;;1.70;;
14358;SDS011;7263;49.418;11.064;2022-11-04T07:25:22;2.83;;;1.67;;
14358;SDS011;7263;49.418;11.064;2022-11-04T07:27:48;5.03;;;2.03;;
14358;SDS011;7263;49.418;11.064;2022-11-04T07:30:16;3.30;;;1.90;;
14358;SDS011;7263;49.418;11.064;2022-11-04T07:32:44;1.83;;;1.63;;
14358;SDS011;7263;49.418;11.064;2022-11-04T07:35:11;2.13;;;1.60;;
14358;SDS011;7263;49.418;11.064;2022-11-04T07:37:38;2.70;;;1.67;;
14358;SDS011;7263;49.418;11.064;2022-11-04T07:40:07;4.30;;;1.73;;
14358;SDS011;7263;49.418;11.064;2022-11-04T07:42:35;3.13;;;1.63;;
14358;SDS011;7263;49.418;11.064;2022-11-04T07:45:02;4.20;;;2.13;;
14358;SDS011;7263;49.418;11.064;2022-11-04T07:47:30;3.33;;;2.03;;
14358;SDS011;7263;49.418;11.064;2022-11-04T07:49:58;3.40;;;1.67;;
14358;SDS011;7263;49.418;11.064;2022-11-04T07:52:24;4.00;;;1.53;;
14358;SDS011;7263;49.418;11.064;2022-11-04T07:54:51;3.47;;;1.87;;
14358;SDS011;7263;49.418;11.064;2022-11-04T07:57:19;2.97;;;1.50;;
14358;SDS011;7263;49.418;11.064;2022-11-04T07:59:46;3.07;;;1.60;;
14358;SDS011;7263;49.418;11.064;2022-11-04T08:02:13;2.53;;;1.73;;
14358;SDS011;7263;49.418;11.064;2022-11-04T08:04:40;3.13;;;1.73;;
14358;SDS011;7263;49.418;11.064;2022-11-04T08:07:07;4.23;;;1.77;;
14358;SDS011;7263;49.418;11.064;2022-11-04T08:09:34;3.03;;;1.70;;
14358;SDS011;7263;49.418;11.064;2022-11-04T08:12:02;2.67;;;1.50;;
14358;SDS011;7263;49.418;11.064;2022-11-04T08:14:31;4.03;;;1.87;;
14358;SDS011;7263;49.418;11.064;2022-11-04T08:16:58;2.23;;;1.53;;
14358;SDS011;7263;49.418;11.064;2022-11-04T08:19:25;2.67;;;1.60;;
14358;SDS011;7263;49.418;11.064;2022-11-04T08:21:52;2.40;;;1.73;;
14358;SDS011;7263;49.418;11.064;2022-11-04T08:24:18;5.40;;;1.97;;
14358;SDS011;7263;49.418;11.064;2022-11-04T08:26:46;7.13;;;1.60;;
14358;SDS011;7263;49.418;11.064;2022-11-04T08:29:12;3.33;;;1.57;;
14358;SDS011;7263;49.418;11.064;2022-11-04T08:31:40;2.73;;;1.53;;
14358;SDS011;7263;49.418;11.064;2022-11-04T08:34:08;4.17;;;1.67;;
14358;SDS011;7263;49.418;11.064;2022-11-04T08:36:35;3.63;;;1.90;;
14358;SDS011;7263;49.418;11.064;2022-11-04T08:39:05;2.90;;;1.77;;
14358;SDS011;7263;49.418;11.064;2022-11-04T08:41:32;2.90;;;1.60;;
14358;SDS011;7263;49.418;11.064;2022-11-04T08:44:01;3.13;;;1.90;;
14358;SDS011;7263;49.418;11.064;2022-11-04T08:46:28;3.20;;;1.90;;
14358;SDS011;7263;49.418;11.064;2022-11-04T08:48:59;6.77;;;1.77;;
14358;SDS011;7263;49.418;11.064;2022-11-04T08:51:28;4.77;;;1.60;;
14358;SDS011;7263;49.418;11.064;2022-11-04T08:53:56;4.03;;;1.70;;
14358;SDS011;7263;49.418;11.064;2022-11-04T08:56:24;2.53;;;1.50;;
14358;SDS011;7263;49.418;11.064;2022-11-04T08:58:52;4.47;;;1.87;;
14358;SDS011;7263;49.418;11.064;2022-11-04T09:01:20;2.63;;;1.67;;
14358;SDS011;7263;49.418;11.064;2022-11-04T09:03:47;4.10;;;1.50;;
14358;SDS011;7263;49.418;11.064;2022-11-04T09:06:17;5.47;;;1.77;;
14358;SDS011;7263;49.418;11.064;2022-11-04T09:08:45;3.87;;;1.30;;
14358;SDS011;7263;49.418;11.064;2022-11-04T09:11:12;3.03;;;1.40;;
14358;SDS011;7263;49.418;11.064;2022-11-04T09:13:40;4.30;;;1.60;;
14358;SDS011;7263;49.418;11.064;2022-11-04T09:16:08;3.73;;;1.47;;
14358;SDS011;7263;49.418;11.064;2022-11-04T09:18:39;2.63;;;1.23;;
14358;SDS011;7263;49.418;11.064;2022-11-04T09:21:06;3.90;;;1.90;;
14358;SDS011;7263;49.418;11.064;2022-11-04T09:23:35;3.53;;;1.50;;
14358;SDS011;7263;49.418;11.064;2022-11-04T09:26:03;5.13;;;1.53;;
14358;SDS011;7263;49.418;11.064;2022-11-04T09:28:31;3.30;;;1.50;;
14358;SDS011;7263;49.418;11.064;2022-11-04T09:30:58;3.83;;;1.57;;
14358;SDS011;7263;49.418;11.064;2022-11-04T09:33:25;4.03;;;1.77;;
14358;SDS011;7263;49.418;11.064;2022-11-04T09:35:53;3.93;;;1.60;;
14358;SDS011;7263;49.418;11.064;2022-11-04T09:38:20;3.83;;;1.63;;
14358;SDS011;7263;49.418;11.064;2022-11-04T09:40:49;2.90;;;1.60;;
14358;SDS011;7263;49.418;11.064;2022-11-04T09:43:22;3.10;;;1.70;;
14358;SDS011;7263;49.418;11.064;2022-11-04T09:45:56;3.70;;;1.50;;
14358;SDS011;7263;49.418;11.064;2022-11-04T09:48:25;7.60;;;1.83;;
14358;SDS011;7263;49.418;11.064;2022-11-04T09:50:58;4.50;;;1.90;;
14358;SDS011;7263;49.418;11.064;2022-11-04T09:53:29;6.10;;;1.87;;
14358;SDS011;7263;49.418;11.064;2022-11-04T09:56:00;2.97;;;1.40;;
14358;SDS011;7263;49.418;11.064;2022-11-04T09:58:32;2.93;;;1.33;;
14358;SDS011;7263;49.418;11.064;2022-11-04T10:01:04;3.43;;;1.90;;
14358;SDS011;7263;49.418;11.064;2022-11-04T10:03:40;5.27;;;1.90;;
14358;SDS011;7263;49.418;11.064;2022-11-04T10:06:19;4.07;;;1.50;;
14358;SDS011;7263;49.418;11.064;2022-11-04T10:09:03;5.57;;;1.53;;
14358;SDS011;7263;49.418;11.064;2022-11-04T10:11:44;4.23;;;1.50;;
14358;SDS011;7263;49.418;11.064;2022-11-04T10:14:21;2.47;;;1.50;;
14358;SDS011;7263;49.418;11.064;2022-11-04T10:17:12;4.33;;;1.50;;
14358;SDS011;7263;49.418;11.064;2022-11-04T10:19:55;3.50;;;1.33;;
14358;SDS011;7263;49.418;11.064;2022-11-04T10:22:30;3.57;;;1.20;;
14358;SDS011;7263;49.418;11.064;2022-11-04T10:25:00;3.37;;;1.30;;
14358;SDS011;7263;49.418;11.064;2022-11-04T10:27:35;5.23;;;1.40;;
14358;SDS011;7263;49.418;11.064;2022-11-04T10:30:06;4.03;;;1.23;;
14358;SDS011;7263;49.418;11.064;2022-11-04T10:32:41;2.13;;;1.40;;
14358;SDS011;7263;49.418;11.064;2022-11-04T10:35:16;1.90;;;1.00;;
14358;SDS011;7263;49.418;11.064;2022-11-04T10:37:50;3.63;;;1.83;;
14358;SDS011;7263;49.418;11.064;2022-11-04T10:40:19;1.87;;;1.00;;
14358;SDS011;7263;49.418;11.064;2022-11-04T10:42:51;7.27;;;1.40;;
14358;SDS011;7263;49.418;11.064;2022-11-04T10:45:19;2.57;;;1.20;;
14358;SDS011;7263;49.418;11.064;2022-11-04T10:47:53;3.70;;;1.60;;
14358;SDS011;7263;49.418;11.064;2022-11-04T10:50:25;5.20;;;1.50;;
14358;SDS011;7263;49.418;11.064;2022-11-04T10:53:01;2.27;;;1.30;;
14358;SDS011;7263;49.418;11.064;2022-11-04T10:55:37;2.77;;;1.13;;
14358;SDS011;7263;49.418;11.064;2022-11-04T10:58:12;2.80;;;1.27;;
14358;SDS011;7263;49.418;11.064;2022-11-04T11:00:43;4.67;;;1.30;;
14358;SDS011;7263;49.418;11.064;2022-11-04T11:06:08;4.50;;;1.40;;
14358;SDS011;7263;49.418;11.064;2022-11-04T11:08:38;3.27;;;1.10;;
14358;SDS011;7263;49.418;11.064;2022-11-04T11:11:07;3.43;;;1.30;;
14358;SDS011;7263;49.418;11.064;2022-11-04T11:13:36;2.60;;;1.20;;
14358;SDS011;7263;49.418;11.064;2022-11-04T11:16:06;4.37;;;1.43;;
14358;SDS011;7263;49.418;11.064;2022-11-04T11:18:35;1.33;;;0.97;;
14358;SDS011;7263;49.418;11.064;2022-11-04T11:21:04;3.37;;;1.50;;
14358;SDS011;7263;49.418;11.064;2022-11-04T11:23:36;4.77;;;1.70;;
14358;SDS011;7263;49.418;11.064;2022-11-04T11:26:06;4.07;;;1.40;;
14358;SDS011;7263;49.418;11.064;2022-11-04T11:28:36;5.70;;;1.40;;
14358;SDS011;7263;49.418;11.064;2022-11-04T11:31:06;3.93;;;1.50;;
14358;SDS011;7263;49.418;11.064;2022-11-04T11:33:44;3.23;;;1.87;;
14358;SDS011;7263;49.418;11.064;2022-11-04T11:36:14;3.50;;;1.50;;
14358;SDS011;7263;49.418;11.064;2022-11-04T11:38:51;3.63;;;1.30;;
14358;SDS011;7263;49.418;11.064;2022-11-04T11:41:21;4.40;;;1.50;;
14358;SDS011;7263;49.418;11.064;2022-11-04T11:43:57;5.07;;;1.73;;
14358;SDS011;7263;49.418;11.064;2022-11-04T11:46:30;3.37;;;1.60;;
14358;SDS011;7263;49.418;11.064;2022-11-04T11:49:02;3.57;;;1.47;;
14358;SDS011;7263;49.418;11.064;2022-11-04T11:51:31;2.10;;;1.10;;
14358;SDS011;7263;49.418;11.064;2022-11-04T11:56:57;4.57;;;1.60;;
14358;SDS011;7263;49.418;11.064;2022-11-04T11:59:29;4.83;;;1.47;;
14358;SDS011;7263;49.418;11.064;2022-11-04T12:02:09;2.63;;;1.60;;
14358;SDS011;7263;49.418;11.064;2022-11-04T12:04:48;5.07;;;1.77;;
14358;SDS011;7263;49.418;11.064;2022-11-04T12:07:17;5.80;;;1.60;;
14358;SDS011;7263;49.418;11.064;2022-11-04T12:09:52;6.07;;;1.87;;
14358;SDS011;7263;49.418;11.064;2022-11-04T12:12:30;4.67;;;1.70;;
14358;SDS011;7263;49.418;11.064;2022-11-04T12:15:10;2.97;;;1.50;;
14358;SDS011;7263;49.418;11.064;2022-11-04T12:17:56;4.00;;;1.83;;
14358;SDS011;7263;49.418;11.064;2022-11-04T12:20:51;3.40;;;1.43;;
14358;SDS011;7263;49.418;11.064;2022-11-04T12:23:25;6.67;;;1.73;;
14358;SDS011;7263;49.418;11.064;2022-11-04T12:25:58;2.50;;;1.50;;
14358;SDS011;7263;49.418;11.064;2022-11-04T12:28:39;3.47;;;1.40;;
14358;SDS011;7263;49.418;11.064;2022-11-04T12:31:21;4.13;;;1.40;;
14358;SDS011;7263;49.418;11.064;2022-11-04T12:33:57;6.33;;;1.40;;
14358;SDS011;7263;49.418;11.064;2022-11-04T12:36:34;4.27;;;1.50;;
14358;SDS011;7263;49.418;11.064;2022-11-04T12:39:17;3.77;;;1.33;;
14358;SDS011;7263;49.418;11.064;2022-11-04T12:41:55;2.57;;;1.27;;
14358;SDS011;7263;49.418;11.064;2022-11-04T12:44:31;3.87;;;1.90;;
14358;SDS011;7263;49.418;11.064;2022-11-04T12:47:07;3.70;;;1.20;;
14358;SDS011;7263;49.418;11.064;2022-11-04T12:49:46;4.37;;;1.53;;
14358;SDS011;7263;49.418;11.064;2022-11-04T12:52:25;3.33;;;1.53;;
14358;SDS011;7263;49.418;11.064;2022-11-04T12:55:05;3.47;;;1.40;;
14358;SDS011;7263;49.418;11.064;2022-11-04T12:57:46;3.50;;;1.20;;
14358;SDS011;7263;49.418;11.064;2022-11-04T13:00:16;3.27;;;1.40;;
14358;SDS011;7263;49.418;11.064;2022-11-04T13:02:47;3.97;;;1.30;;
14358;SDS011;7263;49.418;11.064;2022-11-04T13:05:23;3.07;;;1.20;;
14358;SDS011;7263;49.418;11.064;2022-11-04T13:08:02;3.43;;;1.70;;
14358;SDS011;7263;49.418;11.064;2022-11-04T13:10:36;8.30;;;1.70;;
14358;SDS011;7263;49.418;11.064;2022-11-04T13:13:05;2.63;;;1.50;;
14358;SDS011;7263;49.418;11.064;2022-11-04T13:15:35;4.73;;;1.10;;
14358;SDS011;7263;49.418;11.064;2022-11-04T13:18:14;3.53;;;1.30;;
14358;SDS011;7263;49.418;11.064;2022-11-04T13:20:44;5.53;;;1.27;;
14358;SDS011;7263;49.418;11.064;2022-11-04T13:23:18;3.23;;;1.30;;
14358;SDS011;7263;49.418;11.064;2022-11-04T13:25:49;4.10;;;1.80;;
14358;SDS011;7263;49.418;11.064;2022-11-04T13:28:18;3.93;;;1.90;;
14358;SDS011;7263;49.418;11.064;2022-11-04T13:30:49;6.13;;;1.80;;
14358;SDS011;7263;49.418;11.064;2022-11-04T13:33:26;3.03;;;1.60;;
14358;SDS011;7263;49.418;11.064;2022-11-04T13:36:00;9.20;;;1.83;;
14358;SDS011;7263;49.418;11.064;2022-11-04T13:38:38;5.87;;;1.63;;
14358;SDS011;7263;49.418;11.064;2022-11-04T13:41:15;6.03;;;1.60;;
14358;SDS011;7263;49.418;11.064;2022-11-04T13:44:04;4.50;;;1.43;;
14358;SDS011;7263;49.418;11.064;2022-11-04T13:46:37;3.87;;;1.30;;
14358;SDS011;7263;49.418;11.064;2022-11-04T13:49:14;2.27;;;1.10;;
14358;SDS011;7263;49.418;11.064;2022-11-04T13:51:46;3.60;;;1.60;;
14358;SDS011;7263;49.418;11.064;2022-11-04T13:54:26;2.53;;;1.30;;
14358;SDS011;7263;49.418;11.064;2022-11-04T13:57:05;2.97;;;1.30;;
14358;SDS011;7263;49.418;11.064;2022-11-04T13:59:34;3.77;;;1.43;;
14358;SDS011;7263;49.418;11.064;2022-11-04T14:04:52;3.87;;;1.67;;
14358;SDS011;7263;49.418;11.064;2022-11-04T14:07:23;5.50;;;2.20;;
14358;SDS011;7263;49.418;11.064;2022-11-04T14:10:35;3.60;;;1.80;;
14358;SDS011;7263;49.418;11.064;2022-11-04T14:16:36;5.07;;;3.57;;
14358;SDS011;7263;49.418;11.064;2022-11-04T14:22:22;6.93;;;4.30;;
14358;SDS011;7263;49.418;11.064;2022-11-04T14:24:58;6.37;;;2.60;;
14358;SDS011;7263;49.418;11.064;2022-11-04T14:27:33;2.77;;;1.53;;
14358;SDS011;7263;49.418;11.064;2022-11-04T14:30:04;4.77;;;1.63;;
14358;SDS011;7263;49.418;11.064;2022-11-04T14:32:33;3.83;;;1.97;;
14358;SDS011;7263;49.418;11.064;2022-11-04T14:35:05;5.30;;;1.83;;
14358;SDS011;7263;49.418;11.064;2022-11-04T14:37:34;4.63;;;1.60;;
14358;SDS011;7263;49.418;11.064;2022-11-04T14:40:03;5.50;;;1.60;;
14358;SDS011;7263;49.418;11.064;2022-11-04T14:42:43;4.27;;;1.80;;
14358;SDS011;7263;49.418;11.064;2022-11-04T14:45:14;3.57;;;1.77;;
14358;SDS011;7263;49.418;11.064;2022-11-04T14:47:45;7.43;;;2.63;;
14358;SDS011;7263;49.418;11.064;2022-11-04T14:50:16;3.03;;;1.70;;
14358;SDS011;7263;49.418;11.064;2022-11-04T14:52:48;3.70;;;1.77;;
14358;SDS011;7263;49.418;11.064;2022-11-04T14:55:19;4.80;;;1.80;;
14358;SDS011;7263;49.418;11.064;2022-11-04T14:57:49;5.73;;;1.60;;
14358;SDS011;7263;49.418;11.064;2022-11-04T15:00:18;4.87;;;1.70;;
14358;SDS011;7263;49.418;11.064;2022-11-04T15:02:59;6.03;;;1.83;;
14358;SDS011;7263;49.418;11.064;2022-11-04T15:05:29;3.23;;;2.07;;
14358;SDS011;7263;49.418;11.064;2022-11-04T15:08:01;3.47;;;2.07;;
14358;SDS011;7263;49.418;11.064;2022-11-04T15:10:43;6.17;;;2.07;;
14358;SDS011;7263;49.418;11.064;2022-11-04T15:13:17;4.37;;;1.63;;
14358;SDS011;7263;49.418;11.064;2022-11-04T15:15:45;2.17;;;1.70;;
14358;SDS011;7263;49.418;11.064;2022-11-04T15:18:15;3.80;;;2.07;;
14358;SDS011;7263;49.418;11.064;2022-11-04T15:20:44;3.03;;;1.83;;
14358;SDS011;7263;49.418;11.064;2022-11-04T15:23:16;5.10;;;2.63;;
14358;SDS011;7263;49.418;11.064;2022-11-04T15:25:48;7.17;;;2.70;;
14358;SDS011;7263;49.418;11.064;2022-11-04T15:28:16;4.17;;;2.30;;
14358;SDS011;7263;49.418;11.064;2022-11-04T15:30:55;6.63;;;2.17;;
14358;SDS011;7263;49.418;11.064;2022-11-04T15:33:27;6.63;;;2.17;;
14358;SDS011;7263;49.418;11.064;2022-11-04T15:35:55;3.50;;;1.73;;